Terminal Aerodrome Forecast
Issued by NWS St Louis, MO

Home | Current Version | Previous Version | Text Only | Print | Product List | Glossary On
Versions: 1 2 3 4 5 6 7 8 9 10 11 12 13 14 15 16 17 18 19 20 21 22 23 24 25 26 27 28
000
FTUS43 KLSX 200500
TAFSTL
TAF
KSTL 200520Z 2006/2112 26010KT P6SM SCT025 BKN100
     FM200700 30015G25KT P6SM BKN015
     FM201500 30018G28KT P6SM SCT040
     FM210100 29012KT P6SM SCT060
     FM210700 24007KT P6SM SCT250=

USA.gov is the U.S. government's official web portal to all federal, state and local government web resources and services.